createdAt,value
2018-09-19T00:00:40.616Z,64.10
2018-09-19T00:01:44.056Z,64.10
2018-09-19T00:02:47.569Z,64.10
2018-09-19T00:03:51.027Z,64.20
2018-09-19T00:04:54.568Z,64.30
2018-09-19T00:05:57.955Z,64.40
2018-09-19T00:07:01.355Z,64.50
2018-09-19T00:08:04.777Z,64.60
2018-09-19T00:09:09.863Z,64.70
2018-09-19T00:10:13.340Z,64.70
2018-09-19T00:11:16.739Z,64.70
2018-09-19T00:12:20.203Z,64.90
2018-09-19T00:13:23.661Z,64.90
2018-09-19T00:14:27.126Z,64.90
2018-09-19T00:15:30.587Z,64.90
2018-09-19T00:16:34.016Z,65.00
2018-09-19T00:17:37.435Z,65.00
2018-09-19T00:18:40.857Z,65.00
2018-09-19T00:19:44.296Z,65.10
2018-09-19T00:20:47.676Z,65.20
2018-09-19T00:21:51.122Z,65.20
2018-09-19T00:23:00.867Z,65.20
2018-09-19T00:24:04.409Z,65.20
2018-09-19T00:25:07.809Z,65.30
2018-09-19T00:26:11.225Z,65.30
2018-09-19T00:27:14.686Z,65.40
2018-09-19T00:28:18.096Z,65.40
2018-09-19T00:29:21.552Z,65.50
2018-09-19T00:30:24.959Z,65.70
2018-09-19T00:31:28.396Z,65.80
2018-09-19T00:32:31.787Z,65.90
2018-09-19T00:33:35.214Z,66.00
2018-09-19T00:34:38.642Z,66.20
2018-09-19T00:35:42.164Z,66.30
2018-09-19T00:36:45.603Z,66.40
2018-09-19T00:37:49.068Z,66.30
2018-09-19T00:38:53.029Z,66.50
2018-09-19T00:39:56.419Z,66.50
2018-09-19T00:40:59.814Z,66.50
2018-09-19T00:42:03.230Z,66.60
2018-09-19T00:43:06.652Z,66.60
2018-09-19T00:44:10.120Z,66.70
2018-09-19T00:45:14.005Z,66.70
2018-09-19T00:46:17.419Z,66.70
2018-09-19T00:47:20.896Z,66.80
2018-09-19T00:48:24.332Z,66.90
2018-09-19T00:49:27.974Z,66.90
2018-09-19T00:50:31.387Z,66.90
2018-09-19T00:51:34.846Z,67.00
2018-09-19T00:52:38.227Z,67.00
2018-09-19T00:53:41.684Z,67.10
2018-09-19T00:54:45.111Z,67.10
2018-09-19T00:55:48.535Z,67.10
2018-09-19T00:56:51.944Z,67.10
2018-09-19T00:57:55.473Z,67.10
2018-09-19T00:58:58.858Z,67.20
2018-09-19T01:00:02.342Z,67.20
2018-09-19T01:01:05.818Z,67.70
2018-09-19T01:02:09.225Z,67.30
2018-09-19T01:03:12.627Z,67.30
2018-09-19T01:04:16.075Z,67.40
2018-09-19T01:05:19.565Z,67.40
2018-09-19T01:06:22.979Z,67.40
2018-09-19T01:07:26.401Z,67.50
2018-09-19T01:08:29.931Z,67.50
2018-09-19T01:09:33.364Z,67.50
2018-09-19T01:10:36.839Z,67.40
2018-09-19T01:11:40.284Z,67.50
2018-09-19T01:12:43.696Z,67.50
2018-09-19T01:13:47.137Z,67.50
2018-09-19T01:14:50.521Z,67.60
2018-09-19T01:15:54.005Z,67.50
2018-09-19T01:16:57.502Z,67.60
2018-09-19T01:18:00.896Z,67.60
2018-09-19T01:19:04.336Z,67.70
2018-09-19T01:20:07.795Z,67.70
2018-09-19T01:21:11.264Z,67.70
2018-09-19T01:22:14.777Z,68.50
2018-09-19T01:23:18.171Z,67.80
2018-09-19T01:24:21.620Z,67.90
2018-09-19T01:25:25.194Z,68.00
2018-09-19T01:26:28.579Z,68.00
2018-09-19T01:27:31.973Z,67.90
2018-09-19T01:28:35.478Z,68.00
2018-09-19T01:29:39.093Z,68.10
2018-09-19T01:30:42.561Z,68.10
2018-09-19T01:31:45.976Z,68.10
2018-09-19T01:32:49.407Z,68.20
2018-09-19T01:33:52.869Z,68.30
2018-09-19T01:34:56.390Z,68.30
2018-09-19T01:35:59.916Z,68.40
2018-09-19T01:37:03.357Z,68.50
2018-09-19T01:38:06.892Z,68.50
2018-09-19T01:39:10.307Z,68.40
2018-09-19T01:40:13.708Z,68.50
2018-09-19T01:41:17.164Z,68.50
2018-09-19T01:42:20.637Z,68.60
2018-09-19T01:43:24.020Z,68.60
2018-09-19T01:44:27.434Z,68.60
2018-09-19T01:45:30.870Z,68.70
2018-09-19T01:46:34.291Z,68.80
2018-09-19T01:47:37.697Z,68.80
2018-09-19T01:48:41.155Z,69.00
2018-09-19T01:49:44.581Z,69.50
2018-09-19T01:50:48.032Z,68.90
2018-09-19T01:51:54.059Z,69.10
2018-09-19T01:52:57.769Z,69.10
2018-09-19T01:54:01.210Z,69.20
2018-09-19T01:55:04.655Z,69.30
2018-09-19T01:56:08.166Z,69.30
2018-09-19T01:57:11.581Z,69.40
2018-09-19T01:58:15.009Z,69.50
2018-09-19T01:59:18.471Z,69.50
2018-09-19T02:00:21.867Z,69.60
2018-09-19T02:01:25.319Z,69.60
2018-09-19T02:02:28.777Z,69.60
2018-09-19T02:03:32.187Z,69.70
2018-09-19T02:04:35.859Z,69.70
2018-09-19T02:05:39.309Z,69.80
2018-09-19T02:06:42.734Z,69.70
2018-09-19T02:07:46.154Z,69.80
2018-09-19T02:08:49.582Z,69.90
2018-09-19T02:09:53.022Z,69.90
2018-09-19T02:10:56.547Z,70.00
2018-09-19T02:11:59.992Z,69.90
2018-09-19T02:13:03.628Z,70.00
2018-09-19T02:14:07.604Z,70.10
2018-09-19T02:15:11.036Z,70.10
2018-09-19T02:16:14.541Z,70.20
2018-09-19T02:17:17.952Z,70.30
2018-09-19T02:18:21.408Z,70.30
2018-09-19T02:19:24.803Z,70.40
2018-09-19T02:20:28.332Z,70.40
2018-09-19T02:21:31.775Z,70.50
2018-09-19T02:22:35.207Z,70.60
2018-09-19T02:23:38.663Z,70.70
2018-09-19T02:24:42.080Z,70.60
2018-09-19T02:25:45.493Z,70.80
2018-09-19T02:26:48.887Z,70.70
2018-09-19T02:27:52.324Z,70.70
2018-09-19T02:28:55.708Z,70.80
2018-09-19T02:29:59.141Z,70.80
2018-09-19T02:31:02.765Z,70.90
2018-09-19T02:32:06.452Z,71.00
2018-09-19T02:33:09.864Z,71.00
2018-09-19T02:34:13.307Z,71.10
2018-09-19T02:35:16.776Z,71.20
2018-09-19T02:36:27.716Z,71.90
2018-09-19T02:37:31.130Z,71.20
2018-09-19T02:38:34.601Z,71.30
2018-09-19T02:39:37.988Z,71.30
2018-09-19T02:40:41.426Z,71.40
2018-09-19T02:41:44.814Z,71.40
2018-09-19T02:42:48.268Z,71.50
2018-09-19T02:43:52.048Z,71.50
2018-09-19T02:44:55.432Z,71.60
2018-09-19T02:45:58.839Z,71.60
2018-09-19T02:47:02.277Z,71.60
2018-09-19T02:48:05.816Z,71.60
2018-09-19T02:49:09.235Z,71.60
2018-09-19T02:50:12.818Z,72.50
2018-09-19T02:51:16.996Z,71.80
2018-09-19T02:52:20.419Z,71.90
2018-09-19T02:53:23.813Z,72.00
2018-09-19T02:54:28.882Z,72.00
2018-09-19T02:55:32.353Z,72.10
2018-09-19T02:56:35.736Z,72.20
2018-09-19T02:57:39.131Z,72.20
2018-09-19T02:58:42.720Z,72.30
2018-09-19T02:59:46.128Z,72.30
2018-09-19T03:00:49.515Z,73.00
2018-09-19T03:01:52.986Z,72.30
2018-09-19T03:02:56.436Z,72.30
2018-09-19T03:03:59.860Z,72.40
2018-09-19T03:05:03.357Z,72.40
2018-09-19T03:06:06.790Z,72.50
2018-09-19T03:07:10.239Z,72.50
2018-09-19T03:08:13.687Z,72.50
2018-09-19T03:09:17.108Z,72.60
2018-09-19T03:10:20.597Z,72.60
2018-09-19T03:11:24.040Z,72.60
2018-09-19T03:12:27.448Z,72.60
2018-09-19T03:13:30.890Z,72.70
2018-09-19T03:14:34.332Z,72.80
2018-09-19T03:15:37.795Z,72.80
2018-09-19T03:16:41.223Z,72.80
2018-09-19T03:17:44.737Z,72.90
2018-09-19T03:18:48.022Z,72.90
2018-09-19T03:19:51.457Z,72.90
2018-09-19T03:20:54.924Z,73.00
2018-09-19T03:21:58.358Z,73.00
2018-09-19T03:23:01.755Z,73.10
2018-09-19T03:24:05.827Z,73.20
2018-09-19T03:25:09.237Z,73.30
2018-09-19T03:26:12.691Z,73.40
2018-09-19T03:27:16.171Z,73.40
2018-09-19T03:28:19.664Z,73.50
2018-09-19T03:29:23.123Z,73.60
2018-09-19T03:30:26.559Z,73.60
2018-09-19T03:31:30.008Z,73.70
2018-09-19T03:32:33.588Z,73.70
2018-09-19T03:33:37.013Z,73.80
2018-09-19T03:34:40.437Z,73.80
2018-09-19T03:35:43.911Z,73.90
2018-09-19T03:36:47.585Z,73.90
2018-09-19T03:37:50.999Z,74.00
2018-09-19T03:38:54.393Z,74.00
2018-09-19T03:39:57.818Z,74.00
2018-09-19T03:41:01.220Z,74.10
2018-09-19T03:42:04.712Z,74.10
2018-09-19T03:43:08.184Z,74.10
2018-09-19T03:44:11.580Z,74.10
2018-09-19T03:45:14.961Z,74.20
2018-09-19T03:46:18.478Z,74.20
2018-09-19T03:47:21.934Z,74.30
2018-09-19T03:48:25.539Z,74.30
2018-09-19T03:49:29.337Z,74.30
2018-09-19T03:50:32.734Z,74.40
2018-09-19T03:51:36.463Z,74.50
2018-09-19T03:52:39.896Z,74.50
2018-09-19T03:53:43.339Z,74.60
2018-09-19T03:54:46.857Z,74.60
2018-09-19T03:55:50.297Z,74.70
2018-09-19T03:56:53.722Z,75.30
2018-09-19T03:57:57.133Z,74.70
2018-09-19T03:59:00.623Z,74.70
2018-09-19T04:00:04.028Z,74.80
2018-09-19T04:01:07.420Z,74.90
2018-09-19T04:02:10.857Z,74.90
2018-09-19T04:03:14.253Z,74.90
2018-09-19T04:04:17.692Z,74.90
2018-09-19T04:05:21.142Z,74.90
2018-09-19T04:06:24.556Z,75.00
2018-09-19T04:07:28.087Z,75.00
2018-09-19T04:08:31.585Z,75.10
2018-09-19T04:09:35.066Z,75.10
2018-09-19T04:10:38.456Z,75.20
2018-09-19T04:11:41.957Z,75.20
2018-09-19T04:12:45.376Z,75.20
2018-09-19T04:13:48.779Z,75.30
2018-09-19T04:14:52.212Z,75.40
2018-09-19T04:15:55.724Z,75.60
2018-09-19T04:16:59.184Z,75.50
2018-09-19T04:18:02.625Z,75.60
2018-09-19T04:19:06.294Z,75.60
2018-09-19T04:20:09.735Z,75.80
2018-09-19T04:21:13.172Z,75.80
2018-09-19T04:22:16.569Z,75.90
2018-09-19T04:23:20.057Z,76.00
2018-09-19T04:24:23.485Z,76.00
2018-09-19T04:25:26.908Z,76.10
2018-09-19T04:26:30.385Z,76.10
2018-09-19T04:27:33.853Z,76.20
2018-09-19T04:28:37.292Z,76.20
2018-09-19T04:29:40.702Z,76.20
2018-09-19T04:30:44.206Z,76.30
2018-09-19T04:31:47.612Z,76.30
2018-09-19T04:32:51.007Z,76.40
2018-09-19T04:33:54.477Z,76.40
2018-09-19T04:34:57.886Z,76.40
2018-09-19T04:36:01.352Z,76.60
2018-09-19T04:37:04.794Z,76.50
2018-09-19T04:38:08.200Z,76.70
2018-09-19T04:39:12.980Z,76.70
2018-09-19T04:40:16.398Z,76.70
2018-09-19T04:41:19.872Z,76.70
2018-09-19T04:42:23.269Z,76.80
2018-09-19T04:43:26.805Z,76.80
2018-09-19T04:44:30.232Z,76.90
2018-09-19T04:45:33.625Z,76.90
2018-09-19T04:46:37.894Z,76.90
2018-09-19T04:47:41.391Z,77.00
2018-09-19T04:48:44.824Z,77.00
2018-09-19T04:49:48.244Z,77.00
2018-09-19T04:50:51.640Z,77.00
2018-09-19T04:51:55.044Z,77.10
2018-09-19T04:52:58.452Z,77.10
2018-09-19T04:54:01.979Z,77.10
2018-09-19T04:55:06.212Z,77.20
2018-09-19T04:56:09.677Z,77.20
2018-09-19T04:57:13.093Z,77.20
2018-09-19T04:58:16.528Z,77.30
2018-09-19T04:59:19.937Z,77.30
2018-09-19T05:00:23.378Z,77.20
2018-09-19T05:01:26.857Z,77.40
2018-09-19T05:02:30.249Z,77.50
2018-09-19T05:03:33.757Z,77.40
2018-09-19T05:04:37.237Z,77.50
2018-09-19T05:05:40.795Z,77.60
2018-09-19T05:06:44.281Z,77.50
2018-09-19T05:07:47.704Z,77.50
2018-09-19T05:08:51.101Z,77.60
2018-09-19T05:09:54.569Z,77.60
2018-09-19T05:10:57.969Z,77.70
2018-09-19T05:12:01.358Z,77.80
2018-09-19T05:13:04.872Z,77.90
2018-09-19T05:14:08.520Z,77.90
2018-09-19T05:15:11.918Z,78.00
2018-09-19T05:16:15.454Z,78.10
2018-09-19T05:17:18.839Z,78.10
2018-09-19T05:18:22.297Z,78.10
2018-09-19T05:19:25.797Z,78.20
2018-09-19T05:20:29.205Z,78.30
2018-09-19T05:21:32.697Z,78.30
2018-09-19T05:22:36.289Z,78.30
2018-09-19T05:23:39.673Z,78.30
2018-09-19T05:24:43.087Z,78.30
2018-09-19T05:25:46.506Z,78.40
2018-09-19T05:26:49.939Z,78.40
2018-09-19T05:27:53.367Z,78.40
2018-09-19T05:28:56.834Z,78.50
2018-09-19T05:30:00.257Z,78.50
2018-09-19T05:31:03.796Z,78.50
2018-09-19T05:32:07.256Z,78.50
2018-09-19T05:33:10.656Z,78.50
2018-09-19T05:34:14.131Z,78.60
2018-09-19T05:35:17.563Z,78.60
2018-09-19T05:36:21.033Z,78.60
2018-09-19T05:37:24.509Z,78.70
2018-09-19T05:38:28.022Z,78.70
2018-09-19T05:39:31.415Z,78.80
2018-09-19T05:40:34.919Z,78.70
2018-09-19T05:41:38.392Z,78.80
2018-09-19T05:42:41.870Z,78.90
2018-09-19T05:43:45.382Z,78.90
2018-09-19T05:44:48.787Z,79.00
2018-09-19T05:45:52.435Z,79.00
2018-09-19T05:46:55.838Z,79.10
2018-09-19T05:47:59.232Z,79.20
2018-09-19T05:49:02.694Z,79.10
2018-09-19T05:50:06.144Z,79.20
2018-09-19T05:51:09.594Z,79.30
2018-09-19T05:52:12.979Z,80.00
2018-09-19T05:53:16.410Z,79.40
2018-09-19T05:54:19.850Z,79.60
2018-09-19T05:55:23.241Z,79.50
2018-09-19T05:56:27.000Z,79.70
2018-09-19T05:57:30.455Z,79.70
2018-09-19T05:58:33.864Z,79.70
2018-09-19T05:59:37.288Z,79.80
2018-09-19T06:00:40.686Z,80.60
2018-09-19T06:01:44.094Z,79.90
2018-09-19T06:02:47.591Z,80.00
2018-09-19T06:03:50.995Z,80.00
2018-09-19T06:04:54.760Z,80.20
2018-09-19T06:05:58.209Z,80.20
2018-09-19T06:07:01.831Z,80.30
2018-09-19T06:08:05.527Z,80.30
2018-09-19T06:09:10.293Z,80.40
2018-09-19T06:10:13.696Z,80.50
2018-09-19T06:11:17.096Z,80.50
2018-09-19T06:12:20.531Z,80.70
2018-09-19T06:13:23.980Z,81.30
2018-09-19T06:14:27.388Z,80.70
2018-09-19T06:15:30.884Z,80.80
2018-09-19T06:16:34.372Z,80.90
2018-09-19T06:17:37.825Z,81.00
2018-09-19T06:18:41.246Z,81.10
2018-09-19T06:19:44.728Z,81.10
2018-09-19T06:20:48.172Z,81.10
2018-09-19T06:21:52.007Z,81.10
2018-09-19T06:22:55.443Z,81.20
2018-09-19T06:23:58.891Z,81.30
2018-09-19T06:25:02.304Z,81.40
2018-09-19T06:26:05.976Z,81.50
2018-09-19T06:27:09.403Z,81.50
2018-09-19T06:28:12.833Z,81.60
2018-09-19T06:29:16.336Z,81.70
2018-09-19T06:30:19.753Z,81.70
2018-09-19T06:31:23.739Z,81.80
2018-09-19T06:32:27.156Z,81.80
2018-09-19T06:33:30.616Z,81.70
2018-09-19T06:34:34.061Z,81.90
2018-09-19T06:35:37.484Z,81.80
2018-09-19T06:36:40.938Z,81.90
2018-09-19T06:37:44.326Z,81.90
2018-09-19T06:38:47.986Z,82.00
2018-09-19T06:39:51.439Z,81.90
2018-09-19T06:40:55.005Z,82.00
2018-09-19T06:41:58.261Z,82.00
2018-09-19T06:43:01.702Z,82.00
2018-09-19T06:44:05.117Z,82.20
2018-09-19T06:45:08.507Z,82.20
2018-09-19T06:46:11.900Z,82.30
2018-09-19T06:47:15.305Z,82.30
2018-09-19T06:48:18.760Z,82.30
2018-09-19T06:49:22.201Z,82.30
2018-09-19T06:50:25.590Z,82.40
2018-09-19T06:51:29.038Z,82.40
2018-09-19T06:52:32.468Z,82.50
2018-09-19T06:53:35.847Z,82.50
2018-09-19T06:54:39.270Z,82.60
2018-09-19T06:55:42.701Z,82.50
2018-09-19T06:56:46.176Z,82.70
2018-09-19T06:57:49.617Z,82.60
2018-09-19T06:58:53.162Z,82.70
2018-09-19T06:59:56.574Z,82.70
2018-09-19T07:01:00.092Z,82.80
2018-09-19T07:02:03.492Z,82.90
2018-09-19T07:03:07.022Z,82.90
2018-09-19T07:04:10.471Z,82.90
2018-09-19T07:05:13.891Z,83.00
2018-09-19T07:06:17.295Z,83.00
2018-09-19T07:07:20.815Z,83.00
2018-09-19T07:08:24.286Z,83.00
2018-09-19T07:09:27.729Z,83.10
2018-09-19T07:10:31.152Z,83.10
2018-09-19T07:11:34.568Z,83.30
2018-09-19T07:12:37.991Z,83.30
2018-09-19T07:13:41.474Z,83.30
2018-09-19T07:14:44.872Z,83.30
2018-09-19T07:15:48.500Z,83.40
2018-09-19T07:16:51.883Z,83.60
2018-09-19T07:17:55.352Z,83.60
2018-09-19T07:18:58.848Z,83.70
2018-09-19T07:20:02.161Z,83.70
2018-09-19T07:21:05.744Z,83.70
2018-09-19T07:22:09.131Z,83.70
2018-09-19T07:23:12.559Z,83.80
2018-09-19T07:24:15.985Z,83.80
2018-09-19T07:25:19.480Z,83.90
2018-09-19T07:26:22.914Z,83.90
2018-09-19T07:27:26.458Z,84.20
2018-09-19T07:28:29.989Z,83.50
2018-09-19T07:29:33.390Z,84.00
2018-09-19T07:30:36.796Z,84.10
2018-09-19T07:31:40.300Z,84.10
2018-09-19T07:32:43.703Z,84.10
2018-09-19T07:33:47.373Z,84.20
2018-09-19T07:34:50.851Z,84.20
2018-09-19T07:35:54.253Z,84.20
2018-09-19T07:36:57.765Z,84.30
2018-09-19T07:38:01.170Z,84.30
2018-09-19T07:39:06.684Z,84.50
2018-09-19T07:40:10.200Z,84.60
2018-09-19T07:41:13.968Z,84.60
2018-09-19T07:42:17.407Z,84.60
2018-09-19T07:43:20.802Z,84.60
2018-09-19T07:44:24.255Z,84.60
2018-09-19T07:45:27.660Z,84.70
2018-09-19T07:46:31.138Z,85.00
2018-09-19T07:47:34.877Z,84.90
2018-09-19T07:48:38.384Z,84.90
2018-09-19T07:49:41.781Z,84.90
2018-09-19T07:50:45.215Z,84.90
2018-09-19T07:51:48.669Z,85.60
2018-09-19T07:52:52.109Z,85.00
2018-09-19T07:53:55.576Z,85.00
2018-09-19T07:54:59.085Z,85.10
2018-09-19T07:56:03.210Z,85.20
2018-09-19T07:57:06.620Z,85.40
2018-09-19T07:58:10.101Z,85.40
2018-09-19T07:59:13.492Z,85.40
2018-09-19T08:00:16.932Z,85.50
2018-09-19T08:01:20.491Z,85.60
2018-09-19T08:02:23.849Z,85.60
2018-09-19T08:03:27.277Z,85.70
2018-09-19T08:04:30.780Z,86.30
2018-09-19T08:05:34.262Z,85.80
2018-09-19T08:06:37.676Z,85.80
2018-09-19T08:07:41.412Z,85.90
2018-09-19T08:08:44.944Z,85.90
2018-09-19T08:09:48.328Z,85.80
2018-09-19T08:10:52.311Z,85.80
2018-09-19T08:11:55.736Z,85.70
2018-09-19T08:12:59.195Z,85.70
2018-09-19T08:14:02.676Z,85.60
2018-09-19T08:15:06.152Z,85.50
2018-09-19T08:16:09.588Z,85.40
2018-09-19T08:17:13.172Z,85.40
2018-09-19T08:18:16.552Z,85.40
2018-09-19T08:19:20.007Z,85.30
2018-09-19T08:20:23.412Z,85.30
2018-09-19T08:21:26.836Z,85.40
2018-09-19T08:22:30.351Z,85.40
2018-09-19T08:23:33.850Z,85.40
2018-09-19T08:24:37.268Z,85.50
2018-09-19T08:25:40.661Z,85.50
2018-09-19T08:26:44.149Z,85.50
2018-09-19T08:27:47.546Z,85.60
2018-09-19T08:28:50.940Z,85.60
2018-09-19T08:29:54.580Z,85.70
2018-09-19T08:30:58.006Z,85.80
2018-09-19T08:32:03.436Z,85.80
2018-09-19T08:33:06.821Z,85.80
2018-09-19T08:34:10.305Z,86.00
2018-09-19T08:35:13.750Z,86.00
2018-09-19T08:36:17.201Z,86.00
2018-09-19T08:37:20.619Z,85.90
2018-09-19T08:38:24.022Z,86.00
2018-09-19T08:39:27.429Z,86.10
2018-09-19T08:40:30.875Z,86.20
2018-09-19T08:41:34.316Z,86.30
2018-09-19T08:42:37.712Z,86.30
2018-09-19T08:43:41.127Z,86.40
2018-09-19T08:44:44.549Z,86.40
2018-09-19T08:45:47.976Z,86.40
2018-09-19T08:46:51.382Z,86.40
2018-09-19T08:47:54.780Z,86.50
2018-09-19T08:48:58.192Z,86.50
2018-09-19T08:50:01.741Z,86.60
2018-09-19T08:51:05.219Z,86.70
2018-09-19T08:52:08.728Z,86.80
2018-09-19T08:53:13.409Z,86.80
2018-09-19T08:54:16.899Z,86.80
2018-09-19T08:55:20.339Z,86.80
2018-09-19T08:56:23.932Z,86.80
2018-09-19T08:57:27.477Z,86.90
2018-09-19T08:58:30.887Z,87.00
2018-09-19T08:59:34.303Z,87.00
2018-09-19T09:00:37.865Z,88.00
2018-09-19T09:01:41.281Z,87.20
2018-09-19T09:02:44.745Z,87.30
2018-09-19T09:03:48.414Z,87.30
2018-09-19T09:04:51.814Z,87.40
2018-09-19T09:05:55.261Z,87.40
2018-09-19T09:06:58.720Z,87.30
2018-09-19T09:08:02.145Z,87.20
2018-09-19T09:09:06.857Z,87.10
2018-09-19T09:10:10.244Z,87.20
2018-09-19T09:11:13.834Z,87.30
2018-09-19T09:12:17.475Z,87.30
2018-09-19T09:13:20.846Z,87.30
2018-09-19T09:14:24.229Z,87.30
2018-09-19T09:15:27.670Z,87.90
2018-09-19T09:16:31.242Z,87.40
2018-09-19T09:17:34.681Z,87.30
2018-09-19T09:18:38.119Z,87.50
2018-09-19T09:19:41.523Z,87.50
2018-09-19T09:20:45.139Z,87.50
2018-09-19T09:21:48.552Z,87.70
2018-09-19T09:22:51.973Z,87.60
2018-09-19T09:23:55.409Z,87.60
2018-09-19T09:24:59.052Z,87.50
2018-09-19T09:26:02.517Z,87.40
2018-09-19T09:27:06.252Z,87.30
2018-09-19T09:28:09.971Z,87.20
2018-09-19T09:29:13.398Z,87.30
2018-09-19T09:30:16.815Z,87.20
2018-09-19T09:31:20.210Z,87.20
2018-09-19T09:32:23.665Z,87.20
2018-09-19T09:33:27.077Z,87.20
2018-09-19T09:34:30.678Z,87.10
2018-09-19T09:35:34.274Z,87.00
2018-09-19T09:36:37.722Z,86.80
2018-09-19T09:37:41.381Z,86.90
2018-09-19T09:38:44.886Z,86.70
2018-09-19T09:39:48.457Z,86.30
2018-09-19T09:40:51.859Z,86.20
2018-09-19T09:41:55.278Z,85.90
2018-09-19T09:42:59.029Z,85.70
2018-09-19T09:44:02.426Z,85.30
2018-09-19T09:45:05.868Z,84.60
2018-09-19T09:46:09.422Z,84.90
2018-09-19T09:47:12.689Z,84.70
2018-09-19T09:48:16.169Z,84.70
2018-09-19T09:49:19.604Z,84.60
2018-09-19T09:50:23.028Z,84.50
2018-09-19T09:51:26.520Z,84.40
2018-09-19T09:52:29.892Z,84.30
2018-09-19T09:54:37.025Z,84.10
2018-09-19T09:55:43.292Z,84.20
2018-09-19T09:56:46.828Z,84.00
2018-09-19T09:57:50.246Z,83.70
2018-09-19T09:58:53.946Z,83.50
2018-09-19T09:59:57.407Z,83.20
2018-09-19T10:01:00.866Z,83.00
2018-09-19T10:02:04.272Z,83.00
2018-09-19T10:03:08.050Z,82.90
2018-09-19T10:04:11.475Z,82.90
2018-09-19T10:05:14.935Z,82.60
2018-09-19T10:06:18.377Z,82.30
2018-09-19T10:07:21.747Z,81.70
2018-09-19T10:08:25.148Z,81.20
2018-09-19T10:09:28.569Z,80.80
2018-09-19T10:10:32.101Z,80.00
2018-09-19T10:11:35.585Z,79.60
2018-09-19T10:12:39.125Z,79.00
2018-09-19T10:13:42.545Z,78.20
2018-09-19T10:14:46.045Z,78.40
2018-09-19T10:15:49.477Z,77.60
2018-09-19T10:16:52.907Z,77.40
2018-09-19T10:17:56.371Z,77.20
2018-09-19T10:18:59.870Z,77.00
2018-09-19T10:20:03.311Z,76.70
2018-09-19T10:21:07.091Z,76.60
2018-09-19T10:22:10.533Z,76.40
2018-09-19T10:23:13.988Z,76.10
2018-09-19T10:24:17.419Z,76.00
2018-09-19T10:25:20.988Z,76.00
2018-09-19T10:26:24.439Z,76.00
2018-09-19T10:27:27.879Z,75.80
2018-09-19T10:28:31.319Z,75.60
2018-09-19T10:29:34.755Z,75.40
2018-09-19T10:30:38.287Z,75.40
2018-09-19T10:31:41.715Z,75.40
2018-09-19T10:32:45.171Z,75.30
2018-09-19T10:33:48.585Z,75.30
2018-09-19T10:34:52.142Z,75.10
2018-09-19T10:35:55.647Z,75.00
2018-09-19T10:36:59.087Z,74.90
2018-09-19T10:38:02.532Z,74.60
2018-09-19T10:39:06.514Z,74.20
2018-09-19T10:40:09.936Z,74.00
2018-09-19T10:41:13.583Z,74.00
2018-09-19T10:42:17.055Z,73.80
2018-09-19T10:43:20.497Z,73.60
2018-09-19T10:44:23.943Z,73.60
2018-09-19T10:45:27.337Z,73.70
2018-09-19T10:46:37.422Z,73.50
2018-09-19T10:47:40.881Z,73.00
2018-09-19T10:48:44.272Z,72.50
2018-09-19T10:49:50.596Z,72.20
2018-09-19T10:50:54.049Z,72.10
2018-09-19T10:51:57.533Z,72.00
2018-09-19T10:53:01.936Z,72.20
2018-09-19T10:54:05.396Z,72.00
2018-09-19T10:55:08.845Z,71.90
2018-09-19T10:56:12.558Z,71.70
2018-09-19T10:57:15.956Z,71.70
2018-09-19T10:58:19.407Z,71.70
2018-09-19T10:59:22.821Z,71.80
2018-09-19T11:00:26.310Z,71.90
2018-09-19T11:01:29.691Z,71.90
2018-09-19T11:02:33.212Z,71.70
2018-09-19T11:03:36.687Z,71.40
2018-09-19T11:04:40.113Z,71.40
2018-09-19T11:05:43.776Z,71.30
2018-09-19T11:06:47.232Z,71.30
2018-09-19T11:07:50.616Z,70.90
2018-09-19T11:08:54.038Z,70.70
2018-09-19T11:09:57.439Z,70.60
2018-09-19T11:11:00.847Z,70.50
2018-09-19T11:12:04.277Z,70.30
2018-09-19T11:13:07.668Z,70.30
2018-09-19T11:14:11.170Z,70.00
2018-09-19T11:15:14.611Z,69.70
2018-09-19T11:16:18.045Z,69.50
2018-09-19T11:17:21.436Z,69.10
2018-09-19T11:18:24.888Z,68.80
2018-09-19T11:19:28.375Z,68.60
2018-09-19T11:20:31.830Z,68.50
2018-09-19T11:21:35.331Z,68.40
2018-09-19T11:22:38.724Z,68.60
2018-09-19T11:23:42.252Z,68.30
2018-09-19T11:24:45.832Z,68.10
2018-09-19T11:25:49.228Z,68.00
2018-09-19T11:26:52.640Z,67.90
2018-09-19T11:27:56.627Z,68.00
2018-09-19T11:29:00.072Z,67.90
2018-09-19T11:30:03.558Z,67.70
2018-09-19T11:31:06.941Z,67.50
2018-09-19T11:32:10.676Z,67.30
2018-09-19T11:33:14.514Z,67.30
2018-09-19T11:34:17.952Z,67.50
2018-09-19T11:35:21.458Z,67.60
2018-09-19T11:36:25.004Z,67.60
2018-09-19T11:37:28.566Z,67.60
2018-09-19T11:38:31.979Z,67.50
2018-09-19T11:39:35.411Z,67.50
2018-09-19T11:40:38.885Z,68.10
2018-09-19T11:41:42.504Z,67.30
2018-09-19T11:42:46.017Z,67.20
2018-09-19T11:43:49.439Z,67.10
2018-09-19T11:44:52.912Z,67.20
2018-09-19T11:45:56.321Z,67.30
2018-09-19T11:46:59.809Z,67.20
2018-09-19T11:48:03.224Z,67.20
2018-09-19T11:49:06.932Z,67.20
2018-09-19T11:50:10.363Z,67.20
2018-09-19T11:51:13.824Z,67.20
2018-09-19T11:52:17.228Z,66.80
2018-09-19T11:53:20.679Z,67.30
2018-09-19T11:54:24.064Z,66.70
2018-09-19T11:55:27.534Z,66.90
2018-09-19T11:56:31.025Z,67.10
2018-09-19T11:57:34.581Z,67.40
2018-09-19T11:58:37.988Z,67.70
2018-09-19T11:59:41.448Z,67.60
2018-09-19T12:00:44.921Z,67.60
2018-09-19T12:01:48.365Z,67.40
2018-09-19T12:02:51.923Z,67.00
2018-09-19T12:03:55.351Z,67.30
2018-09-19T12:04:58.744Z,66.60
2018-09-19T12:06:02.277Z,66.70
2018-09-19T12:07:05.831Z,66.80
2018-09-19T12:08:09.210Z,66.80
2018-09-19T12:09:13.577Z,66.70
2018-09-19T12:10:17.209Z,66.70
2018-09-19T12:11:20.865Z,66.50
2018-09-19T12:12:24.296Z,66.40
2018-09-19T12:13:27.749Z,66.20
2018-09-19T12:14:31.133Z,65.80
2018-09-19T12:15:37.289Z,65.80
2018-09-19T12:16:40.843Z,65.10
2018-09-19T12:17:44.864Z,64.80
2018-09-19T12:18:48.428Z,64.40
2018-09-19T12:19:51.867Z,64.30
2018-09-19T12:20:55.320Z,64.20
2018-09-19T12:21:58.757Z,64.20
2018-09-19T12:23:02.200Z,64.20
2018-09-19T12:24:05.660Z,64.20
2018-09-19T12:25:09.068Z,64.10
2018-09-19T12:26:12.456Z,64.10
2018-09-19T12:27:15.876Z,64.10
2018-09-19T12:28:19.675Z,64.00
2018-09-19T12:29:23.070Z,64.10
2018-09-19T12:30:26.607Z,64.80
2018-09-19T12:31:30.149Z,64.10
2018-09-19T12:32:33.555Z,63.90
2018-09-19T12:33:37.221Z,63.80
2018-09-19T12:34:40.646Z,63.60
2018-09-19T12:35:44.065Z,63.60
2018-09-19T12:36:47.476Z,63.70
2018-09-19T12:37:50.992Z,63.70
2018-09-19T12:38:54.464Z,63.70
2018-09-19T12:39:57.956Z,63.60
2018-09-19T12:41:01.391Z,63.60
2018-09-19T12:42:04.931Z,63.30
2018-09-19T12:43:08.327Z,63.40
2018-09-19T12:44:11.752Z,63.10
2018-09-19T12:45:15.141Z,63.10
2018-09-19T12:46:18.628Z,63.00
2018-09-19T12:47:22.006Z,62.80
2018-09-19T12:48:25.396Z,62.50
2018-09-19T12:49:28.841Z,62.30
2018-09-19T12:50:32.237Z,62.10
2018-09-19T12:51:35.967Z,62.10
2018-09-19T12:52:39.343Z,62.10
2018-09-19T12:53:42.749Z,62.10
2018-09-19T12:54:46.155Z,62.00
2018-09-19T12:55:49.655Z,61.80
2018-09-19T12:56:53.044Z,62.20
2018-09-19T12:57:56.474Z,61.50
2018-09-19T12:59:00.305Z,61.50
2018-09-19T13:00:03.757Z,60.80
2018-09-19T13:01:07.148Z,60.20
2018-09-19T13:02:10.689Z,59.70
2018-09-19T13:03:14.133Z,59.70
2018-09-19T13:04:17.698Z,59.70
2018-09-19T13:05:21.181Z,59.80
2018-09-19T13:06:24.695Z,59.70
2018-09-19T13:07:28.080Z,59.70
2018-09-19T13:08:31.575Z,59.60
2018-09-19T13:09:35.140Z,59.10
2018-09-19T13:10:38.633Z,58.70
2018-09-19T13:11:42.053Z,58.50
2018-09-19T13:12:45.604Z,58.50
2018-09-19T13:13:48.983Z,58.50
2018-09-19T13:14:52.364Z,58.60
2018-09-19T13:15:55.968Z,58.60
2018-09-19T13:16:59.362Z,58.60
2018-09-19T13:18:02.864Z,58.60
2018-09-19T13:19:06.255Z,58.70
2018-09-19T13:20:09.644Z,58.70
2018-09-19T13:21:13.225Z,58.70
2018-09-19T13:22:16.622Z,58.20
2018-09-19T13:23:20.049Z,58.00
2018-09-19T13:24:23.443Z,57.60
2018-09-19T13:25:26.847Z,57.20
2018-09-19T13:26:30.273Z,56.80
2018-09-19T13:27:33.805Z,56.50
2018-09-19T13:28:37.213Z,56.90
2018-09-19T13:29:40.618Z,56.50
2018-09-19T13:30:44.036Z,56.50
2018-09-19T13:31:47.629Z,56.50
2018-09-19T13:32:51.068Z,57.00
2018-09-19T13:33:54.525Z,56.90
2018-09-19T13:34:57.940Z,56.70
2018-09-19T13:36:01.360Z,56.80
2018-09-19T13:37:04.819Z,56.50
2018-09-19T13:38:08.212Z,56.50
2018-09-19T13:39:12.644Z,56.40